SLSA/SBL METAR and TAF weather

Enter ICAO airport designator
Station Type Date Time Source
SLSA METAR 2022/08/12 15:00 UTC NOAA

SLSA 121500Z 33004KT 8000 NSC 28/13 Q1016


Station Type Date Time Source
SLSA Decoded METAR 2022/08/12 15:00 UTC NOAA

Santa Ana, Bolivia (SLSA) 13-46S 065-26W
Aug 12, 2022 - 11:00 AM EDT / 2022.08.12 1500 UTC
Wind: from the NNW (330 degrees) at 5 MPH (4 KT):0
Visibility: 4 mile(s):0
Temperature: 82 F (28 C)
Dew Point: 55 F (13 C)
Relative Humidity: 39%
Pressure (altimeter): 30.00 in. Hg (1016 hPa)
ob: SLSA 121500Z 33004KT 8000 NSC 28/13 Q1016
cycle: 15

Station Type Date Time Source
SLSA TAF 2009/01/07 11:00 UTC NOAA

METAR SLSA 071100Z 00000KT 9999 FEW020 BKN080 26/24 Q1009

Example: see airport list